createdAt,value
2023-05-23T00:01:28.040Z,17.77
2023-05-23T00:06:29.642Z,17.70
2023-05-23T00:11:31.334Z,17.62
2023-05-23T00:16:33.131Z,17.48
2023-05-23T00:21:34.724Z,17.49
2023-05-23T00:26:36.685Z,17.39
2023-05-23T00:31:38.461Z,17.27
2023-05-23T00:36:40.479Z,17.16
2023-05-23T00:41:42.053Z,17.00
2023-05-23T00:46:45.513Z,16.88
2023-05-23T00:51:48.409Z,16.79
2023-05-23T00:56:50.621Z,16.70
2023-05-23T01:01:55.822Z,16.63
2023-05-23T01:06:57.786Z,16.50
2023-05-23T01:12:17.694Z,16.74
2023-05-23T01:17:26.690Z,17.07
2023-05-23T01:22:41.628Z,17.32
2023-05-23T01:27:51.197Z,17.48
2023-05-23T01:32:55.874Z,17.63
2023-05-23T01:37:57.736Z,17.68
2023-05-23T01:42:59.461Z,17.78
2023-05-23T01:48:04.083Z,17.77
2023-05-23T01:53:06.983Z,17.76
2023-05-23T01:58:09.098Z,17.79
2023-05-23T02:03:10.910Z,17.72
2023-05-23T02:08:12.538Z,17.73
2023-05-23T02:13:14.105Z,17.56
2023-05-23T02:18:15.686Z,17.56
2023-05-23T02:23:18.195Z,17.50
2023-05-23T02:28:20.261Z,17.43
2023-05-23T02:33:24.194Z,17.46
2023-05-23T02:38:26.708Z,17.47
2023-05-23T02:43:28.597Z,17.49
2023-05-23T02:48:30.256Z,17.45
2023-05-23T02:53:32.066Z,17.46
2023-05-23T02:58:33.790Z,17.40
2023-05-23T03:03:35.514Z,17.42
2023-05-23T03:08:37.190Z,17.40
2023-05-23T03:13:39.776Z,17.36
2023-05-23T03:18:43.233Z,17.42
2023-05-23T03:23:44.843Z,17.34
2023-05-23T03:28:46.467Z,17.33
2023-05-23T03:33:48.011Z,17.40
2023-05-23T03:38:50.828Z,17.23
2023-05-23T03:43:52.799Z,17.19
2023-05-23T03:48:54.559Z,17.16
2023-05-23T03:53:57.422Z,17.10
2023-05-23T03:58:59.413Z,16.69
2023-05-23T04:04:01.341Z,16.59
2023-05-23T04:09:07.492Z,16.48
2023-05-23T04:14:13.787Z,16.50
2023-05-23T04:19:16.362Z,16.48
2023-05-23T04:24:18.491Z,16.48
2023-05-23T04:29:20.274Z,16.61
2023-05-23T04:34:23.331Z,16.56
2023-05-23T04:39:24.965Z,16.60
2023-05-23T04:44:52.391Z,16.73
2023-05-23T04:49:58.976Z,16.99
2023-05-23T04:55:01.108Z,16.92
2023-05-23T05:00:06.561Z,16.98
2023-05-23T05:05:10.133Z,16.94
2023-05-23T05:10:11.865Z,16.99
2023-05-23T05:15:13.637Z,16.88
2023-05-23T05:20:17.074Z,16.69
2023-05-23T05:25:18.820Z,16.65
2023-05-23T05:30:20.640Z,16.60
2023-05-23T05:35:33.129Z,16.77
2023-05-23T05:40:34.989Z,17.05
2023-05-23T05:45:37.351Z,17.17
2023-05-23T05:50:39.501Z,17.26
2023-05-23T05:55:42.189Z,17.23
2023-05-23T06:00:44.094Z,17.12
2023-05-23T06:05:45.744Z,17.12
2023-05-23T06:10:47.340Z,17.08
2023-05-23T06:15:49.112Z,17.03
2023-05-23T06:20:50.709Z,16.97
2023-05-23T06:25:53.676Z,17.12
2023-05-23T06:30:55.468Z,17.01
2023-05-23T06:35:57.038Z,16.98
2023-05-23T06:40:58.635Z,16.94
2023-05-23T06:46:00.991Z,17.11
2023-05-23T06:51:03.874Z,17.11
2023-05-23T06:56:06.098Z,17.13
2023-05-23T07:01:14.970Z,17.06
2023-05-23T07:06:21.195Z,16.92
2023-05-23T07:11:23.070Z,17.04
2023-05-23T07:16:29.404Z,16.95
2023-05-23T07:21:38.335Z,17.26
2023-05-23T07:26:41.696Z,17.47
2023-05-23T07:31:43.504Z,17.83
2023-05-23T07:36:47.203Z,17.75
2023-05-23T07:41:50.305Z,17.75
2023-05-23T07:46:53.473Z,17.62
2023-05-23T07:51:56.268Z,17.76
2023-05-23T07:56:58.098Z,17.83
2023-05-23T08:02:00.520Z,18.33
2023-05-23T08:07:05.896Z,18.83
2023-05-23T08:12:25.752Z,18.24
2023-05-23T08:17:36.286Z,18.24
2023-05-23T08:22:38.511Z,18.07
2023-05-23T08:27:40.836Z,18.18
2023-05-23T08:33:05.780Z,17.92
2023-05-23T08:38:09.626Z,17.88
2023-05-23T08:43:16.681Z,17.95
2023-05-23T08:48:20.400Z,17.95
2023-05-23T08:53:27.248Z,17.62
2023-05-23T08:58:36.229Z,17.38
2023-05-23T09:03:39.314Z,17.07
2023-05-23T09:08:51.036Z,17.07
2023-05-23T09:13:55.174Z,17.02
2023-05-23T09:18:58.464Z,16.93
2023-05-23T09:24:02.858Z,17.37
2023-05-23T09:29:06.378Z,17.51
2023-05-23T09:34:08.114Z,17.83
2023-05-23T09:39:12.004Z,17.93
2023-05-23T09:44:14.065Z,18.11
2023-05-23T09:49:17.525Z,18.24
2023-05-23T09:54:20.702Z,18.26
2023-05-23T09:59:23.392Z,18.25
2023-05-23T10:04:26.056Z,17.50
2023-05-23T10:09:33.039Z,16.88
2023-05-23T10:14:40.770Z,16.86
2023-05-23T10:20:01.012Z,16.85
2023-05-23T10:25:06.179Z,16.92
2023-05-23T10:30:08.809Z,17.44
2023-05-23T10:35:25.067Z,18.60
2023-05-23T10:40:26.675Z,18.57
2023-05-23T10:45:28.533Z,18.14
2023-05-23T10:50:35.308Z,21.82
2023-05-23T10:55:37.642Z,21.88
2023-05-23T11:00:39.649Z,22.54
2023-05-23T11:05:47.919Z,23.00
2023-05-23T11:10:53.374Z,23.06
2023-05-23T11:15:55.055Z,20.95
2023-05-23T11:21:00.855Z,19.36
2023-05-23T11:26:02.367Z,19.63
2023-05-23T11:31:04.109Z,19.87
2023-05-23T11:36:07.254Z,19.96
2023-05-23T11:41:08.821Z,19.46
2023-05-23T11:46:10.604Z,19.85
2023-05-23T11:51:12.595Z,19.54
2023-05-23T11:56:15.124Z,19.77
2023-05-23T12:01:16.800Z,20.01
2023-05-23T12:06:22.865Z,20.00
2023-05-23T12:11:24.451Z,20.42
2023-05-23T12:16:27.962Z,21.22
2023-05-23T12:21:46.153Z,20.01
2023-05-23T12:26:50.797Z,20.80
2023-05-23T12:31:52.815Z,21.11
2023-05-23T12:37:18.107Z,20.22
2023-05-23T12:42:20.993Z,19.44
2023-05-23T12:47:22.756Z,19.65
2023-05-23T12:52:24.350Z,19.87
2023-05-23T12:57:25.890Z,19.45
2023-05-23T13:02:28.499Z,19.55
2023-05-23T13:07:30.759Z,20.91
2023-05-23T13:12:32.329Z,21.47
2023-05-23T13:17:34.066Z,21.64
2023-05-23T13:22:35.689Z,20.84
2023-05-23T13:27:37.409Z,20.23
2023-05-23T13:32:39.069Z,20.71
2023-05-23T13:37:40.831Z,20.72
2023-05-23T13:42:42.451Z,21.54
2023-05-23T13:47:44.524Z,21.75
2023-05-23T13:52:49.015Z,22.66
2023-05-23T13:57:51.911Z,21.88
2023-05-23T14:02:53.531Z,20.69
2023-05-23T14:07:55.194Z,22.39
2023-05-23T14:12:56.922Z,22.02
2023-05-23T14:17:58.463Z,21.68
2023-05-23T14:23:00.138Z,21.33
2023-05-23T14:28:01.761Z,21.21
2023-05-23T14:33:03.526Z,21.34
2023-05-23T14:38:05.190Z,21.47
2023-05-23T14:43:06.839Z,23.17
2023-05-23T14:48:10.231Z,24.17
2023-05-23T14:53:11.878Z,22.20
2023-05-23T14:58:13.592Z,22.48
2023-05-23T15:03:15.733Z,23.70
2023-05-23T15:08:17.636Z,23.43
2023-05-23T15:13:19.275Z,24.33
2023-05-23T15:18:35.737Z,22.87
2023-05-23T15:23:41.956Z,23.33
2023-05-23T15:28:43.754Z,24.08
2023-05-23T15:33:45.542Z,23.19
2023-05-23T15:38:47.314Z,22.86
2023-05-23T15:43:48.862Z,22.26
2023-05-23T15:48:50.456Z,22.90
2023-05-23T15:58:56.760Z,22.78
2023-05-23T16:03:58.469Z,22.56
2023-05-23T16:09:00.159Z,21.69
2023-05-23T16:14:01.900Z,20.54
2023-05-23T16:19:03.686Z,20.32
2023-05-23T16:24:05.571Z,20.06
2023-05-23T16:29:07.230Z,19.64
2023-05-23T16:34:08.798Z,19.58
2023-05-23T16:39:11.158Z,19.58
2023-05-23T16:44:13.903Z,19.79
2023-05-23T16:49:15.505Z,19.47
2023-05-23T16:54:17.089Z,19.40
2023-05-23T16:59:18.767Z,19.29
2023-05-23T17:04:20.581Z,19.31
2023-05-23T17:09:22.607Z,19.50
2023-05-23T17:14:24.243Z,20.22
2023-05-23T17:19:26.122Z,20.08
2023-05-23T17:24:27.762Z,19.71
2023-05-23T17:29:29.330Z,19.75
2023-05-23T17:34:30.900Z,19.09
2023-05-23T17:39:32.489Z,18.80
2023-05-23T17:44:34.184Z,18.52
2023-05-23T17:49:35.768Z,18.63
2023-05-23T17:54:37.426Z,18.67
2023-05-23T17:59:38.993Z,19.00
2023-05-23T18:04:41.990Z,18.77
2023-05-23T18:09:43.883Z,18.39
2023-05-23T18:14:45.597Z,18.03
2023-05-23T18:19:47.226Z,17.71
2023-05-23T18:24:48.848Z,17.61
2023-05-23T18:29:50.445Z,17.20
2023-05-23T18:34:52.058Z,17.11
2023-05-23T18:39:54.049Z,16.93
2023-05-23T18:44:55.620Z,16.78
2023-05-23T18:49:57.250Z,16.59
2023-05-23T18:54:58.818Z,16.47
2023-05-23T19:00:00.592Z,16.21
2023-05-23T19:05:02.535Z,16.18
2023-05-23T19:10:05.161Z,15.95
2023-05-23T19:15:09.793Z,15.90
2023-05-23T19:20:11.890Z,15.91
2023-05-23T19:25:13.570Z,15.80
2023-05-23T19:30:15.267Z,15.92
2023-05-23T19:35:17.383Z,15.87
2023-05-23T19:40:19.253Z,15.91
2023-05-23T19:45:20.864Z,15.83
2023-05-23T19:50:22.499Z,15.77
2023-05-23T19:55:24.150Z,15.71
2023-05-23T20:00:25.889Z,15.62
2023-05-23T20:05:27.472Z,15.48
2023-05-23T20:10:30.258Z,15.36
2023-05-23T20:20:40.206Z,14.96
2023-05-23T20:25:42.099Z,14.86
2023-05-23T20:30:43.807Z,14.72
2023-05-23T20:35:45.555Z,14.57
2023-05-23T20:40:47.122Z,14.46
2023-05-23T20:45:48.713Z,14.32
2023-05-23T20:50:50.330Z,14.20
2023-05-23T20:55:52.246Z,14.06
2023-05-23T21:00:53.960Z,13.94
2023-05-23T21:05:55.513Z,13.93
2023-05-23T21:10:57.084Z,13.77
2023-05-23T21:15:58.711Z,13.76
2023-05-23T21:21:00.277Z,13.87
2023-05-23T21:26:01.959Z,13.87
2023-05-23T21:31:03.710Z,13.73
2023-05-23T21:36:05.421Z,13.68
2023-05-23T21:41:07.063Z,13.65
2023-05-23T21:46:08.745Z,13.56
2023-05-23T21:51:10.470Z,13.40
2023-05-23T21:56:12.048Z,13.32
2023-05-23T22:01:14.185Z,13.24
2023-05-23T22:06:15.890Z,13.18
2023-05-23T22:11:17.533Z,13.04
2023-05-23T22:16:19.152Z,12.95
2023-05-23T22:21:20.727Z,12.94
2023-05-23T22:26:22.319Z,12.82
2023-05-23T22:31:24.383Z,12.74
2023-05-23T22:36:26.221Z,12.59
2023-05-23T22:41:28.351Z,12.49
2023-05-23T22:46:29.952Z,12.25
2023-05-23T22:51:31.491Z,12.22
2023-05-23T22:56:33.155Z,12.20
2023-05-23T23:01:34.917Z,12.10
2023-05-23T23:06:36.718Z,12.12
2023-05-23T23:11:38.352Z,12.15
2023-05-23T23:16:39.916Z,11.99
2023-05-23T23:21:41.495Z,11.84
2023-05-23T23:26:43.261Z,11.83
2023-05-23T23:31:44.901Z,11.66
2023-05-23T23:36:46.530Z,11.61
2023-05-23T23:41:48.066Z,11.50
2023-05-23T23:46:49.732Z,11.51
2023-05-23T23:51:51.383Z,11.43
2023-05-23T23:56:52.973Z,11.37
